Holliday, Texas
Current Conditions -  °F | °C
As of 7:55 AM on Saturday 22 Nov 2014 (Local Time) from KCWC Reporting Station
Thunderstorm Thunderstorm  
Wind Chill: 57°   Ceiling: 800
Heat Index: 57°   Visibility: 10mi
Dew Point: 57°   Wind: 5mph
Humidity: 100%   Direction: 80°E
Pressure: 29.99"   Gusts: NA
Location:  33.82°N, 98.7°W
Report Text: KCWC 221355Z AUTO 08004KT 10SM -VCTSRA OVC008 14/14 A2999 RMK AO2 LTG DSNT ALQS P0002 T01370137
Loading
Personal Weather Stations






























Interactive Weather Map New forecast layout! Learn more

10-Day Weather Forecast

Advertisements
Track Severe Weather on mobile